Time;durP1;ratioP1;P1;durP2;ratioP2;P2;SDS_P1;SDS_P2;PMS_P1;PMS_P2;Temp;Humidity;BMP_temperature;BMP_pressure;BME280_temperature;BME280_humidity;BME280_pressure;Samples;Min_cycle;Max_cycle;Signal;HPM_P1;HPM_P2
2022/01/23 00:03:55;;;;;;;0.85;0.50;;;11.80;62.30;;;;;;20596524;28;20031;-76
2022/01/23 00:34:01;;;;;;;1.20;0.60;;;11.80;62.40;;;;;;20607818;28;20409;-76
2022/01/23 00:44:02;;;;;;;1.17;0.82;;;11.80;62.40;;;;;;20591021;28;20043;-78
2022/01/23 00:54:08;;;;;;;2.22;0.68;;;11.70;62.40;;;;;;20605901;28;20097;-77
2022/01/23 01:04:09;;;;;;;1.25;0.57;;;11.80;62.40;;;;;;20589619;28;20156;-78
2022/01/23 01:35:01;;;;;;;1.65;0.68;;;11.70;62.50;;;;;;20657663;28;20431;-76
2022/01/23 01:45:03;;;;;;;1.15;0.63;;;11.70;62.50;;;;;;20651016;28;20042;-77
2022/01/23 01:55:31;;;;;;;2.78;1.25;;;11.70;62.50;;;;;;20639959;28;20050;-78
2022/01/23 02:57:05;;;;;;;1.58;0.55;;;11.60;62.70;;;;;;20665186;28;20041;-76
2022/01/23 03:07:59;;;;;;;0.68;0.30;;;11.60;62.70;;;;;;20630615;28;20034;-78
2022/01/23 03:38:05;;;;;;;3.03;0.70;;;11.60;62.90;;;;;;20520445;28;20046;-78
2022/01/23 03:58:12;;;;;;;1.10;0.75;;;11.50;63.00;;;;;;20531783;28;20069;-77
2022/01/23 04:08:16;;;;;;;0.82;0.57;;;11.50;63.00;;;;;;20514013;29;20406;-79
2022/01/23 04:59:48;;;;;;;2.17;0.90;;;11.50;63.30;;;;;;20528938;28;20491;-78
2022/01/23 05:09:49;;;;;;;2.58;0.70;;;11.40;63.30;;;;;;20510958;28;20035;-78
2022/01/23 05:19:58;;;;;;;1.63;0.90;;;11.80;62.70;;;;;;20594346;28;20034;-78
2022/01/23 05:30:00;;;;;;;3.60;1.77;;;12.80;60.30;;;;;;20619694;28;20393;-78
2022/01/23 05:40:02;;;;;;;1.67;1.02;;;13.80;57.90;;;;;;20586588;28;20053;-75
2022/01/23 05:50:08;;;;;;;1.73;1.02;;;14.70;55.40;;;;;;20587304;28;20074;-76
2022/01/23 06:00:35;;;;;;;1.65;0.80;;;15.40;53.50;;;;;;20568888;28;20049;-78
2022/01/23 06:10:56;;;;;;;1.42;0.63;;;15.60;52.60;;;;;;20583678;28;20035;-75
2022/01/23 06:21:03;;;;;;;1.17;0.75;;;15.60;52.30;;;;;;20564691;28;20387;-77
2022/01/23 06:31:22;;;;;;;1.77;1.05;;;15.40;52.30;;;;;;20595338;28;20042;-77
2022/01/23 06:41:22;;;;;;;1.43;0.77;;;14.60;53.60;;;;;;20581097;28;20073;-77
2022/01/23 06:51:55;;;;;;;1.00;0.73;;;13.90;55.20;;;;;;20580896;28;20302;-77
2022/01/23 07:01:58;;;;;;;1.88;0.50;;;13.30;56.80;;;;;;20566082;28;20099;-76
2022/01/23 07:12:04;;;;;;;0.98;0.80;;;12.80;57.80;;;;;;20580108;28;20043;-75
2022/01/23 07:22:31;;;;;;;0.85;0.70;;;12.50;58.90;;;;;;20623619;28;20045;-73
2022/01/23 07:32:31;;;;;;;1.87;1.23;;;12.30;59.60;;;;;;20642803;28;20463;-75
2022/01/23 07:42:32;;;;;;;1.70;1.00;;;12.20;60.40;;;;;;20642489;28;20317;-76
2022/01/23 07:52:36;;;;;;;8.38;1.10;;;12.20;60.80;;;;;;20501819;28;20047;-77
2022/01/23 08:02:44;;;;;;;1.90;0.90;;;12.10;61.00;;;;;;20544565;28;20039;-75
2022/01/23 08:13:13;;;;;;;1.60;0.80;;;12.20;61.20;;;;;;20593812;28;20039;-76
2022/01/23 08:23:13;;;;;;;1.80;0.80;;;12.20;61.20;;;;;;20589580;28;20027;-74
2022/01/23 08:33:16;;;;;;;2.03;1.40;;;12.20;61.60;;;;;;20574667;28;20564;-77
2022/01/23 08:43:17;;;;;;;1.23;0.65;;;12.00;62.00;;;;;;20560356;28;20286;-77
2022/01/23 08:53:17;;;;;;;4.25;0.65;;;11.70;62.90;;;;;;20574874;28;20035;-75
2022/01/23 09:03:18;;;;;;;1.77;0.90;;;11.30;63.80;;;;;;20587241;28;20038;-82
2022/01/23 09:13:39;;;;;;;2.60;0.40;;;11.00;64.70;;;;;;20613984;28;20050;-78
2022/01/23 09:23:41;;;;;;;5.60;0.70;;;10.70;65.50;;;;;;20659458;28;20046;-76
2022/01/23 09:33:43;;;;;;;2.78;0.88;;;10.60;66.30;;;;;;20652444;28;20030;-78
2022/01/23 09:43:44;;;;;;;8.20;0.70;;;10.50;67.80;;;;;;20652325;28;20036;-78
2022/01/23 09:53:45;;;;;;;2.22;0.75;;;10.50;67.80;;;;;;20633686;28;20046;-77
2022/01/23 10:03:48;;;;;;;2.45;0.75;;;12.50;63.80;;;;;;20665665;28;20046;-81
2022/01/23 10:13:50;;;;;;;5.85;0.90;;;15.80;55.80;;;;;;20655884;28;20041;-79
2022/01/23 10:23:52;;;;;;;3.88;0.90;;;18.10;50.50;;;;;;20621873;28;20039;-79
2022/01/23 10:33:52;;;;;;;4.45;0.68;;;19.40;47.00;;;;;;20589372;28;20049;-86
2022/01/23 10:54:37;;;;;;;0.88;0.50;;;20.90;42.90;;;;;;20602725;28;20058;-76
2022/01/23 11:05:03;;;;;;;1.77;0.75;;;19.70;44.30;;;;;;20560271;28;20391;-80
2022/01/23 11:25:24;;;;;;;3.53;0.88;;;16.30;50.50;;;;;;20579871;28;20051;-79
2022/01/23 11:35:34;;;;;;;2.75;1.63;;;14.90;53.50;;;;;;20615084;28;20061;-78
2022/01/23 11:56:24;;;;;;;2.65;0.90;;;13.20;58.60;;;;;;20633520;28;20111;-77
2022/01/23 12:06:26;;;;;;;2.35;0.93;;;12.60;60.40;;;;;;20665355;28;20038;-80
2022/01/23 12:16:59;;;;;;;2.72;1.42;;;12.10;61.60;;;;;;20660245;28;20042;-85
2022/01/23 12:27:23;;;;;;;0.88;0.52;;;11.80;63.10;;;;;;20673107;28;20038;-81
2022/01/23 12:37:25;;;;;;;1.60;0.50;;;11.50;64.10;;;;;;20657707;28;20069;-83
2022/01/23 12:47:27;;;;;;;1.02;0.63;;;11.20;65.00;;;;;;20639849;28;20124;-82
2022/01/23 12:57:35;;;;;;;1.67;1.30;;;11.10;65.90;;;;;;20655607;28;20031;-82
2022/01/23 13:17:55;;;;;;;2.33;1.00;;;10.80;67.20;;;;;;20656510;28;20116;-87
2022/01/23 13:38:21;;;;;;;0.98;0.50;;;10.60;68.10;;;;;;20640110;28;20051;-87
2022/01/23 13:49:06;;;;;;;1.02;0.70;;;10.50;68.40;;;;;;20645065;28;20046;-85
2022/01/23 13:59:07;;;;;;;1.75;1.30;;;10.50;68.80;;;;;;20672553;28;20034;-83
2022/01/23 14:09:12;;;;;;;3.58;1.02;;;10.40;69.30;;;;;;20653115;28;20041;-80
2022/01/23 14:19:27;;;;;;;2.53;1.23;;;10.40;69.60;;;;;;20663903;28;20122;-82
2022/01/23 14:29:30;;;;;;;1.38;0.95;;;10.30;69.90;;;;;;20631537;28;20444;-86
2022/01/23 14:39:35;;;;;;;3.58;1.27;;;10.30;70.10;;;;;;20697556;28;20472;-83
2022/01/23 14:49:38;;;;;;;2.40;1.65;;;10.30;70.40;;;;;;20739288;28;20038;-83
2022/01/23 14:59:38;;;;;;;2.58;1.55;;;10.20;70.60;;;;;;20663560;28;20080;-83
2022/01/23 15:09:39;;;;;;;3.85;2.30;;;10.30;71.10;;;;;;20668913;28;20042;-82
2022/01/23 15:19:39;;;;;;;5.95;1.92;;;10.20;71.40;;;;;;20708771;28;20053;-84
2022/01/23 15:29:40;;;;;;;3.83;1.40;;;10.20;71.70;;;;;;20651821;28;20030;-84
2022/01/23 15:39:41;;;;;;;2.15;1.40;;;10.20;71.80;;;;;;20635009;28;20042;-82
2022/01/23 15:49:42;;;;;;;4.53;2.10;;;10.10;71.90;;;;;;20648296;28;20493;-76
2022/01/23 15:59:44;;;;;;;4.75;2.17;;;10.10;72.50;;;;;;20660059;28;20030;-82
2022/01/23 16:09:45;;;;;;;4.25;1.95;;;10.10;71.90;;;;;;20630809;28;20452;-77
2022/01/23 16:19:47;;;;;;;3.55;1.90;;;10.20;72.10;;;;;;20655103;28;20046;-75
2022/01/23 16:29:48;;;;;;;3.65;1.73;;;10.10;72.10;;;;;;20655021;28;20107;-75
2022/01/23 16:39:48;;;;;;;2.20;1.33;;;10.00;72.10;;;;;;20637252;28;20133;-75
2022/01/23 16:49:49;;;;;;;2.53;1.48;;;10.10;72.20;;;;;;20669732;28;20100;-79
2022/01/23 16:59:50;;;;;;;2.65;1.50;;;10.00;72.20;;;;;;20653136;28;20041;-80
2022/01/23 17:09:52;;;;;;;5.43;1.75;;;10.00;72.30;;;;;;20643386;28;20035;-83
2022/01/23 17:19:52;;;;;;;2.65;1.60;;;10.00;72.40;;;;;;20711317;28;20045;-80
2022/01/23 17:29:53;;;;;;;4.32;1.70;;;10.00;72.50;;;;;;20731070;28;20034;-80
2022/01/23 17:39:53;;;;;;;3.30;1.88;;;10.00;72.50;;;;;;20680031;28;20034;-81
2022/01/23 17:49:57;;;;;;;2.80;1.57;;;10.00;72.70;;;;;;20650484;28;20460;-76
2022/01/23 17:59:59;;;;;;;3.78;1.95;;;9.90;72.60;;;;;;20653361;28;20310;-84
2022/01/23 18:10:01;;;;;;;3.78;1.85;;;9.90;72.70;;;;;;20633035;28;20085;-78
2022/01/23 18:20:02;;;;;;;4.32;2.00;;;9.90;72.80;;;;;;20617684;28;20046;-80
2022/01/23 18:30:04;;;;;;;2.75;1.33;;;9.90;72.80;;;;;;20635160;28;20042;-76
2022/01/23 18:40:09;;;;;;;2.65;1.40;;;9.90;72.80;;;;;;20649196;28;20034;-77
2022/01/23 18:50:10;;;;;;;2.50;1.58;;;9.90;72.80;;;;;;20630861;28;20409;-77
2022/01/23 19:00:11;;;;;;;3.25;1.55;;;9.90;72.90;;;;;;20615107;28;20034;-75
2022/01/23 19:10:11;;;;;;;3.70;1.85;;;9.80;72.90;;;;;;20630296;28;20134;-74
2022/01/23 19:20:12;;;;;;;3.55;1.77;;;9.80;73.00;;;;;;20630296;28;20066;-78
2022/01/23 19:30:17;;;;;;;3.45;1.67;;;9.90;73.10;;;;;;20658864;28;20448;-74
2022/01/23 19:40:24;;;;;;;2.70;1.45;;;9.80;73.10;;;;;;20601697;28;20046;-75
2022/01/23 19:50:26;;;;;;;3.42;1.50;;;9.80;73.10;;;;;;20644928;28;20074;-74
2022/01/23 20:00:28;;;;;;;3.08;1.95;;;9.80;73.10;;;;;;20685815;28;20141;-74
2022/01/23 20:20:38;;;;;;;2.10;1.50;;;9.80;73.10;;;;;;20658589;28;20034;-75
2022/01/23 20:30:38;;;;;;;1.87;1.20;;;9.80;73.10;;;;;;20655682;28;20088;-75
2022/01/23 20:40:53;;;;;;;2.65;1.63;;;9.80;73.10;;;;;;20622987;28;20321;-74
2022/01/23 20:50:56;;;;;;;1.48;1.13;;;9.80;73.20;;;;;;20643161;28;20625;-74
2022/01/23 21:00:56;;;;;;;2.63;1.38;;;9.80;73.20;;;;;;20655195;28;20026;-75
2022/01/23 21:10:57;;;;;;;2.38;1.50;;;9.80;73.30;;;;;;20635750;28;20132;-77
2022/01/23 21:32:13;;;;;;;3.50;1.48;;;9.80;73.30;;;;;;20652118;28;20405;-74
2022/01/23 21:41:45;;;;;;;3.55;1.65;;;9.80;73.30;;;;;;20650846;28;20038;-74
2022/01/23 21:51:46;;;;;;;2.22;1.42;;;9.80;73.40;;;;;;20650844;28;20504;-75
2022/01/23 22:01:46;;;;;;;2.95;1.65;;;9.80;73.30;;;;;;20650456;28;20121;-76
2022/01/23 22:12:04;;;;;;;1.92;1.15;;;9.80;73.30;;;;;;20632916;28;20034;-75
2022/01/23 22:22:19;;;;;;;1.85;1.10;;;9.80;73.30;;;;;;20650507;28;20113;-76
2022/01/23 22:32:19;;;;;;;2.25;1.20;;;9.80;73.20;;;;;;20618377;28;20113;-75
2022/01/23 22:42:20;;;;;;;1.77;1.10;;;9.80;73.30;;;;;;20647807;28;20125;-74
2022/01/23 22:52:20;;;;;;;2.55;1.10;;;9.80;73.30;;;;;;20630634;28;20372;-74
2022/01/23 23:02:21;;;;;;;2.50;1.17;;;9.80;73.20;;;;;;20630287;28;20030;-74
2022/01/23 23:12:29;;;;;;;2.47;1.20;;;9.80;73.20;;;;;;20614467;28;20129;-74
2022/01/23 23:22:29;;;;;;;1.30;0.90;;;9.90;73.30;;;;;;20646474;28;20069;-74
2022/01/23 23:32:30;;;;;;;3.70;1.45;;;9.80;73.20;;;;;;20621770;28;20500;-74
2022/01/23 23:42:40;;;;;;;1.30;0.88;;;9.70;73.20;;;;;;20644429;28;20372;-74
2022/01/23 23:52:47;;;;;;;1.60;0.95;;;9.70;73.10;;;;;;20645869;28;20176;-74
